createdAt,value
2018-06-23T00:02:21.343Z,10.40
2018-06-23T00:04:50.101Z,10.30
2018-06-23T00:07:18.172Z,10.20
2018-06-23T00:09:46.893Z,10.30
2018-06-23T00:12:15.894Z,10.20
2018-06-23T00:14:44.353Z,10.20
2018-06-23T00:17:12.508Z,10.20
2018-06-23T00:19:41.127Z,10.20
2018-06-23T00:22:09.250Z,10.30
2018-06-23T00:24:37.440Z,10.30
2018-06-23T00:27:06.101Z,10.30
2018-06-23T00:29:34.282Z,10.30
2018-06-23T00:32:03.121Z,10.30
2018-06-23T00:34:31.802Z,10.30
2018-06-23T00:37:00.127Z,10.30
2018-06-23T00:41:56.214Z,10.30
2018-06-23T00:44:24.587Z,10.30
2018-06-23T00:46:53.082Z,10.30
2018-06-23T00:49:21.719Z,10.30
2018-06-23T00:51:49.970Z,10.30
2018-06-23T00:54:18.234Z,10.30
2018-06-23T00:56:47.214Z,10.20
2018-06-23T00:59:27.171Z,10.20
2018-06-23T01:01:55.257Z,10.20
2018-06-23T01:04:23.565Z,10.30
2018-06-23T01:06:52.382Z,10.50
2018-06-23T01:09:20.450Z,10.60
2018-06-23T01:11:49.471Z,10.70
2018-06-23T01:14:18.848Z,10.70
2018-06-23T01:16:47.050Z,10.80
2018-06-23T01:19:15.255Z,10.70
2018-06-23T01:21:43.509Z,10.70
2018-06-23T01:24:11.958Z,10.60
2018-06-23T01:26:41.590Z,10.50
2018-06-23T01:29:09.761Z,10.50
2018-06-23T01:31:38.525Z,10.50
2018-06-23T01:34:07.006Z,10.50
2018-06-23T01:36:35.816Z,10.50
2018-06-23T01:39:06.668Z,10.60
2018-06-23T01:41:35.933Z,11.10
2018-06-23T01:44:04.324Z,10.80
2018-06-23T01:46:33.028Z,11.00
2018-06-23T01:49:01.219Z,11.10
2018-06-23T01:51:30.023Z,11.20
2018-06-23T01:56:27.153Z,11.30
2018-06-23T01:58:55.398Z,11.40
2018-06-23T02:01:24.577Z,11.40
2018-06-23T02:06:21.053Z,11.50
2018-06-23T02:08:49.230Z,11.60
2018-06-23T02:11:18.681Z,11.60
2018-06-23T02:16:21.527Z,11.70
2018-06-23T02:18:55.465Z,11.70
2018-06-23T02:21:29.118Z,11.70
2018-06-23T02:25:02.958Z,11.70
2018-06-23T02:27:36.722Z,11.70
2018-06-23T02:35:14.981Z,11.70
2018-06-23T02:37:43.046Z,11.70
2018-06-23T02:42:39.021Z,11.70
2018-06-23T02:45:07.622Z,11.70
2018-06-23T02:47:36.214Z,11.70
2018-06-23T02:50:04.614Z,11.70
2018-06-23T02:52:33.029Z,11.70
2018-06-23T02:55:01.338Z,11.70
2018-06-23T02:57:30.345Z,11.80
2018-06-23T02:59:59.838Z,11.70
2018-06-23T03:02:28.121Z,11.80
2018-06-23T03:04:57.121Z,11.80
2018-06-23T03:07:25.321Z,11.80
2018-06-23T03:09:53.418Z,11.80
2018-06-23T03:12:21.806Z,11.80
2018-06-23T03:14:50.403Z,11.80
2018-06-23T03:17:20.246Z,11.80
2018-06-23T03:19:50.790Z,11.80
2018-06-23T03:22:20.498Z,11.80
2018-06-23T03:24:49.477Z,11.80
2018-06-23T03:27:19.593Z,11.90
2018-06-23T03:29:47.842Z,11.80
2018-06-23T03:32:16.406Z,11.90
2018-06-23T03:34:45.561Z,11.90
2018-06-23T03:37:13.661Z,11.90
2018-06-23T03:39:42.301Z,11.90
2018-06-23T03:42:10.473Z,11.90
2018-06-23T03:44:39.334Z,12.00
2018-06-23T03:47:07.520Z,12.00
2018-06-23T03:49:35.581Z,12.00
2018-06-23T03:52:04.046Z,12.00
2018-06-23T03:57:00.445Z,11.90
2018-06-23T03:59:28.793Z,12.00
2018-06-23T04:01:56.953Z,12.00
2018-06-23T04:04:25.287Z,12.00
2018-06-23T04:06:53.506Z,12.00
2018-06-23T04:09:21.705Z,12.00
2018-06-23T04:11:50.095Z,12.10
2018-06-23T04:14:18.345Z,12.10
2018-06-23T04:16:47.234Z,12.10
2018-06-23T04:19:15.307Z,12.10
2018-06-23T04:21:44.201Z,12.20
2018-06-23T04:24:12.889Z,12.30
2018-06-23T04:26:41.551Z,12.40
2018-06-23T04:31:38.510Z,12.40
2018-06-23T04:36:35.394Z,12.30
2018-06-23T04:39:05.514Z,12.30
2018-06-23T04:41:33.594Z,12.40
2018-06-23T04:44:01.702Z,12.40
2018-06-23T04:46:31.222Z,12.40
2018-06-23T04:49:00.122Z,12.40
2018-06-23T04:51:28.490Z,12.40
2018-06-23T04:53:57.871Z,12.30
2018-06-23T04:56:26.189Z,12.30
2018-06-23T04:58:55.083Z,12.40
2018-06-23T05:01:24.000Z,12.40
2018-06-23T05:03:52.354Z,12.40
2018-06-23T05:06:20.958Z,12.50
2018-06-23T05:11:19.188Z,12.50
2018-06-23T05:13:47.609Z,12.50
2018-06-23T05:16:15.738Z,12.50
2018-06-23T05:18:44.189Z,12.60
2018-06-23T05:21:12.409Z,12.80
2018-06-23T05:23:40.885Z,12.90
2018-06-23T05:26:09.009Z,12.90
2018-06-23T05:28:37.082Z,12.90
2018-06-23T05:31:06.144Z,13.00
2018-06-23T05:33:34.258Z,13.20
2018-06-23T05:36:02.454Z,13.40
2018-06-23T05:38:31.051Z,13.40
2018-06-23T05:40:59.121Z,13.40
2018-06-23T05:43:27.325Z,13.40
2018-06-23T05:45:55.616Z,13.50
2018-06-23T05:48:23.996Z,13.50
2018-06-23T05:53:20.929Z,13.50
2018-06-23T05:55:50.039Z,13.50
2018-06-23T06:00:46.248Z,13.40
2018-06-23T06:03:14.316Z,13.70
2018-06-23T06:05:42.513Z,13.70
2018-06-23T06:08:10.677Z,13.70
2018-06-23T06:10:39.494Z,13.70
2018-06-23T06:13:07.562Z,14.00
2018-06-23T06:15:35.738Z,14.20
2018-06-23T06:18:04.064Z,14.20
2018-06-23T06:20:32.995Z,14.00
2018-06-23T06:23:01.834Z,13.90
2018-06-23T06:27:59.262Z,13.60
2018-06-23T06:30:27.438Z,13.60
2018-06-23T06:32:56.285Z,13.80
2018-06-23T06:35:24.566Z,13.90
2018-06-23T06:37:53.157Z,13.90
2018-06-23T06:40:21.645Z,14.00
2018-06-23T06:42:49.809Z,13.90
2018-06-23T06:45:18.014Z,13.90
2018-06-23T06:47:46.717Z,13.90
2018-06-23T06:50:15.672Z,13.90
2018-06-23T06:52:43.998Z,13.70
2018-06-23T06:55:12.111Z,13.40
2018-06-23T06:57:40.478Z,13.30
2018-06-23T07:00:08.586Z,13.30
2018-06-23T07:02:36.952Z,13.40
2018-06-23T07:05:05.196Z,13.40
2018-06-23T07:10:02.219Z,13.60
2018-06-23T07:12:30.301Z,13.60
2018-06-23T07:14:59.014Z,13.60
2018-06-23T07:19:55.085Z,13.80
2018-06-23T07:22:24.062Z,14.00
2018-06-23T07:29:48.917Z,13.90
2018-06-23T07:32:17.373Z,14.00
2018-06-23T07:34:46.565Z,14.40
2018-06-23T07:39:44.011Z,14.50
2018-06-23T07:42:12.078Z,14.50
2018-06-23T07:44:40.222Z,14.70
2018-06-23T07:47:08.474Z,14.90
2018-06-23T07:49:36.658Z,15.90
2018-06-23T07:52:05.335Z,17.40
2018-06-23T07:54:33.581Z,18.00
2018-06-23T07:57:01.648Z,18.10
2018-06-23T07:59:30.150Z,17.70
2018-06-23T08:06:54.070Z,18.10
2018-06-23T08:11:50.482Z,17.90
2018-06-23T08:14:18.565Z,17.10
2018-06-23T08:16:47.318Z,16.70
2018-06-23T08:19:16.032Z,16.60
2018-06-23T08:21:44.806Z,16.90
2018-06-23T08:24:13.466Z,17.00
2018-06-23T08:26:42.103Z,16.90
2018-06-23T08:34:06.325Z,15.90
2018-06-23T08:36:34.774Z,15.50
2018-06-23T08:39:02.870Z,15.00
2018-06-23T08:41:31.123Z,14.50
2018-06-23T08:43:59.459Z,14.10
2018-06-23T08:46:27.658Z,13.80
2018-06-23T08:48:56.415Z,13.60
2018-06-23T08:51:24.674Z,13.40
2018-06-23T08:56:22.421Z,13.40
2018-06-23T08:58:51.430Z,13.70
2018-06-23T09:01:20.031Z,14.00
2018-06-23T09:03:48.661Z,14.20
2018-06-23T09:06:16.766Z,14.70
2018-06-23T09:08:45.418Z,15.40
2018-06-23T09:11:13.925Z,16.40
2018-06-23T09:13:42.698Z,17.30
2018-06-23T09:16:10.771Z,18.10
2018-06-23T09:18:38.993Z,17.50
2018-06-23T09:23:35.165Z,16.50
2018-06-23T09:26:03.891Z,16.00
2018-06-23T09:28:32.046Z,15.50
2018-06-23T09:31:01.081Z,14.70
2018-06-23T09:33:29.549Z,14.30
2018-06-23T09:35:57.605Z,14.00
2018-06-23T09:38:27.483Z,14.00
2018-06-23T09:43:23.653Z,14.60
2018-06-23T09:45:52.299Z,15.20
2018-06-23T09:49:49.938Z,15.90
2018-06-23T09:52:18.098Z,16.70
2018-06-23T09:54:46.898Z,16.80
2018-06-23T09:57:16.540Z,16.80
2018-06-23T09:59:44.656Z,16.80
2018-06-23T10:02:13.555Z,16.90
2018-06-23T10:04:41.886Z,16.60
2018-06-23T10:09:38.110Z,16.70
2018-06-23T10:12:06.270Z,16.20
2018-06-23T10:14:34.468Z,15.50
2018-06-23T10:17:03.609Z,15.20
2018-06-23T10:19:32.547Z,15.20
2018-06-23T10:22:00.694Z,15.80
2018-06-23T10:24:29.164Z,16.60
2018-06-23T10:26:57.395Z,17.50
2018-06-23T10:29:25.498Z,17.80
2018-06-23T10:31:54.563Z,17.60
2018-06-23T10:34:22.742Z,17.40
2018-06-23T10:41:49.094Z,16.30
2018-06-23T10:44:17.222Z,16.10
2018-06-23T10:46:45.738Z,16.10
2018-06-23T10:49:14.457Z,16.10
2018-06-23T10:54:10.517Z,16.00
2018-06-23T10:56:39.073Z,15.70
2018-06-23T10:59:07.222Z,15.40
2018-06-23T11:01:35.726Z,15.00
2018-06-23T11:04:04.641Z,14.90
2018-06-23T11:09:01.528Z,14.60
2018-06-23T11:11:30.245Z,14.70
2018-06-23T11:13:59.162Z,15.20
2018-06-23T11:16:27.698Z,15.60
2018-06-23T11:18:56.626Z,15.70
2018-06-23T11:21:25.074Z,16.30
2018-06-23T11:23:54.341Z,16.40
2018-06-23T11:28:50.594Z,15.60
2018-06-23T11:31:18.969Z,15.00
2018-06-23T11:36:15.642Z,14.20
2018-06-23T11:38:44.382Z,14.30
2018-06-23T11:41:12.546Z,14.50
2018-06-23T11:43:41.319Z,14.70
2018-06-23T11:46:11.325Z,14.90
2018-06-23T11:48:39.597Z,14.80
2018-06-23T11:51:08.433Z,14.90
2018-06-23T11:53:37.458Z,15.10
2018-06-23T11:56:05.869Z,15.20
2018-06-23T11:58:33.986Z,15.00
2018-06-23T12:01:02.938Z,14.70
2018-06-23T12:03:31.102Z,14.50
2018-06-23T12:05:59.306Z,14.20
2018-06-23T12:08:27.653Z,13.90
2018-06-23T12:10:56.338Z,13.60
2018-06-23T12:13:25.134Z,13.50
2018-06-23T12:15:53.294Z,13.40
2018-06-23T12:18:21.584Z,13.40
2018-06-23T12:20:50.881Z,13.50
2018-06-23T12:23:18.949Z,13.70
2018-06-23T12:25:48.038Z,14.00
2018-06-23T12:28:17.062Z,14.20
2018-06-23T12:30:45.890Z,14.10
2018-06-23T12:33:14.006Z,14.30
2018-06-23T12:35:42.922Z,14.30
2018-06-23T12:38:11.917Z,14.10
2018-06-23T12:40:40.380Z,13.90
2018-06-23T12:43:09.710Z,13.90
2018-06-23T12:45:38.379Z,14.00
2018-06-23T12:48:06.554Z,14.50
2018-06-23T12:50:35.497Z,15.00
2018-06-23T12:55:33.115Z,15.20
2018-06-23T12:58:01.470Z,14.90
2018-06-23T13:00:29.649Z,14.50
2018-06-23T13:02:58.134Z,14.10
2018-06-23T13:05:26.690Z,14.10
2018-06-23T13:10:22.669Z,14.20
2018-06-23T13:12:51.505Z,14.40
2018-06-23T13:15:19.942Z,14.50
2018-06-23T13:17:49.558Z,14.70
2018-06-23T13:20:18.743Z,14.90
2018-06-23T13:22:46.907Z,14.90
2018-06-23T13:25:15.118Z,14.90
2018-06-23T13:27:43.277Z,14.80
2018-06-23T13:30:11.654Z,14.60
2018-06-23T13:32:40.661Z,14.40
2018-06-23T13:35:08.726Z,14.40
2018-06-23T13:37:36.910Z,14.30
2018-06-23T13:40:05.083Z,14.30
2018-06-23T13:42:34.084Z,14.50
2018-06-23T13:45:02.235Z,14.50
2018-06-23T13:47:31.022Z,14.40
2018-06-23T13:49:59.246Z,14.30
2018-06-23T13:52:28.113Z,14.30
2018-06-23T13:54:56.295Z,14.20
2018-06-23T13:57:24.891Z,14.10
2018-06-23T13:59:53.582Z,13.90
2018-06-23T14:02:22.550Z,13.80
2018-06-23T14:04:51.648Z,13.90
2018-06-23T14:07:20.589Z,14.00
2018-06-23T14:09:49.325Z,14.20
2018-06-23T14:12:18.150Z,14.20
2018-06-23T14:17:14.759Z,14.10
2018-06-23T14:19:42.816Z,14.00
2018-06-23T14:22:11.034Z,13.80
2018-06-23T14:24:39.382Z,13.70
2018-06-23T14:27:08.093Z,13.70
2018-06-23T14:29:36.222Z,13.80
2018-06-23T14:32:05.662Z,13.90
2018-06-23T14:34:33.729Z,14.10
2018-06-23T14:37:04.870Z,14.30
2018-06-23T14:39:33.213Z,14.30
2018-06-23T14:42:01.478Z,14.20
2018-06-23T14:46:57.538Z,13.90
2018-06-23T14:49:26.254Z,13.80
2018-06-23T14:51:54.742Z,13.90
2018-06-23T14:54:23.506Z,14.10
2018-06-23T14:56:51.613Z,14.20
2018-06-23T14:59:19.685Z,14.20
2018-06-23T15:01:48.497Z,14.30
2018-06-23T15:04:16.653Z,14.40
2018-06-23T15:06:45.634Z,14.30
2018-06-23T15:10:28.963Z,14.20
2018-06-23T15:13:09.237Z,14.00
2018-06-23T15:15:37.398Z,14.00
2018-06-23T15:18:05.502Z,14.00
2018-06-23T15:23:02.512Z,14.00
2018-06-23T15:25:30.717Z,14.00
2018-06-23T15:27:58.984Z,14.00
2018-06-23T15:32:55.169Z,13.90
2018-06-23T15:37:51.781Z,13.70
2018-06-23T15:40:20.018Z,13.70
2018-06-23T15:42:48.577Z,13.70
2018-06-23T15:45:17.058Z,13.80
2018-06-23T15:55:11.022Z,13.60
2018-06-23T15:57:39.194Z,13.60
2018-06-23T16:00:08.278Z,13.70
2018-06-23T16:05:04.498Z,13.60
2018-06-23T16:07:32.941Z,13.50
2018-06-23T16:10:01.168Z,13.30
2018-06-23T16:14:58.030Z,13.30
2018-06-23T16:17:27.270Z,13.40
2018-06-23T16:19:55.573Z,13.40
2018-06-23T16:22:24.317Z,13.40
2018-06-23T16:24:53.169Z,13.30
2018-06-23T16:27:21.895Z,13.20
2018-06-23T16:29:50.598Z,13.10
2018-06-23T16:32:18.655Z,13.20
2018-06-23T16:34:46.911Z,13.20
2018-06-23T16:37:15.226Z,13.20
2018-06-23T16:39:43.486Z,13.20
2018-06-23T16:42:11.865Z,13.20
2018-06-23T16:44:40.366Z,13.30
2018-06-23T16:47:08.729Z,13.30
2018-06-23T16:49:36.962Z,13.30
2018-06-23T16:52:05.258Z,13.30
2018-06-23T16:57:01.741Z,13.30
2018-06-23T16:59:29.939Z,13.20
2018-06-23T17:01:58.132Z,13.20
2018-06-23T17:04:26.403Z,13.20
2018-06-23T17:06:54.778Z,13.20
2018-06-23T17:09:23.065Z,13.10
2018-06-23T17:11:52.093Z,13.00
2018-06-23T17:16:49.058Z,12.90
2018-06-23T17:19:17.498Z,12.90
2018-06-23T17:21:45.934Z,12.90
2018-06-23T17:24:14.129Z,12.90
2018-06-23T17:26:42.913Z,12.80
2018-06-23T17:29:10.981Z,12.80
2018-06-23T17:31:39.259Z,12.80
2018-06-23T17:34:08.113Z,12.70
2018-06-23T17:36:36.211Z,12.80
2018-06-23T17:39:07.350Z,12.70
2018-06-23T17:41:35.974Z,12.70
2018-06-23T17:44:04.325Z,12.70
2018-06-23T17:46:32.389Z,12.70
2018-06-23T17:49:00.678Z,12.70
2018-06-23T17:51:29.786Z,12.70
2018-06-23T17:53:58.391Z,12.70
2018-06-23T17:56:26.989Z,12.80
2018-06-23T17:58:55.051Z,12.70
2018-06-23T18:01:23.153Z,12.60
2018-06-23T18:06:19.564Z,12.70
2018-06-23T18:08:47.715Z,12.70
2018-06-23T18:11:16.090Z,12.80
2018-06-23T18:13:44.764Z,12.80
2018-06-23T18:16:12.842Z,12.80
2018-06-23T18:18:41.054Z,12.70
2018-06-23T18:21:09.733Z,12.70
2018-06-23T18:23:38.002Z,12.60
2018-06-23T18:26:06.078Z,12.60
2018-06-23T18:28:34.440Z,12.70
2018-06-23T18:31:02.978Z,12.60
2018-06-23T18:35:59.682Z,12.60
2018-06-23T18:38:27.798Z,12.60
2018-06-23T18:40:57.093Z,12.60
2018-06-23T18:43:28.837Z,12.60
2018-06-23T18:45:57.295Z,12.60
2018-06-23T18:48:25.469Z,12.60
2018-06-23T18:50:54.053Z,12.60
2018-06-23T18:53:22.110Z,12.60
2018-06-23T18:55:50.365Z,12.50
2018-06-23T19:00:47.707Z,12.50
2018-06-23T19:03:16.265Z,12.50
2018-06-23T19:05:45.167Z,12.50
2018-06-23T19:08:13.514Z,12.40
2018-06-23T19:10:42.441Z,12.50
2018-06-23T19:13:11.561Z,12.50
2018-06-23T19:15:39.670Z,12.50
2018-06-23T19:18:08.578Z,12.50
2018-06-23T19:20:36.778Z,12.50
2018-06-23T19:23:04.886Z,12.50
2018-06-23T19:28:01.029Z,12.50
2018-06-23T19:30:29.163Z,12.40
2018-06-23T19:34:26.554Z,12.40
2018-06-23T19:36:55.266Z,12.40
2018-06-23T19:39:23.916Z,12.30
2018-06-23T19:41:52.258Z,12.40
2018-06-23T19:44:21.245Z,12.30
2018-06-23T19:46:49.245Z,12.30
2018-06-23T19:49:17.626Z,12.30
2018-06-23T19:51:46.002Z,12.40
2018-06-23T19:54:14.149Z,12.30
2018-06-23T19:56:42.438Z,12.30
2018-06-23T19:59:10.525Z,12.30
2018-06-23T20:01:38.721Z,12.30
2018-06-23T20:04:07.402Z,12.30
2018-06-23T20:06:35.702Z,12.30
2018-06-23T20:11:33.858Z,12.30
2018-06-23T20:14:02.014Z,12.30
2018-06-23T20:16:30.249Z,12.30
2018-06-23T20:21:26.685Z,12.20
2018-06-23T20:23:54.811Z,12.20
2018-06-23T20:26:23.754Z,12.20
2018-06-23T20:28:51.811Z,12.20
2018-06-23T20:31:20.130Z,12.20
2018-06-23T20:33:48.431Z,12.20
2018-06-23T20:36:17.266Z,12.20
2018-06-23T20:38:45.422Z,12.20
2018-06-23T20:41:14.141Z,12.20
2018-06-23T20:46:10.043Z,12.20
2018-06-23T20:48:38.221Z,12.20
2018-06-23T20:51:06.302Z,12.20
2018-06-23T20:53:34.438Z,12.20
2018-06-23T20:56:02.700Z,12.20
2018-06-23T20:58:31.511Z,12.10
2018-06-23T21:00:59.677Z,12.20
2018-06-23T21:03:28.158Z,12.10
2018-06-23T21:05:56.497Z,12.10
2018-06-23T21:10:54.182Z,12.10
2018-06-23T21:15:50.475Z,12.10
2018-06-23T21:18:18.683Z,12.10
2018-06-23T21:20:47.151Z,12.10
2018-06-23T21:23:15.582Z,12.10
2018-06-23T21:25:44.278Z,12.10
2018-06-23T21:28:12.359Z,12.10
2018-06-23T21:30:40.609Z,12.10
2018-06-23T21:33:09.338Z,12.10
2018-06-23T21:35:37.702Z,12.10
2018-06-23T21:38:06.306Z,12.10
2018-06-23T21:40:35.042Z,12.10
2018-06-23T21:45:32.371Z,12.00
2018-06-23T21:48:01.023Z,12.00
2018-06-23T21:50:29.256Z,12.00
2018-06-23T21:52:58.019Z,11.90
2018-06-23T21:55:26.193Z,12.00
2018-06-23T21:57:54.706Z,12.00
2018-06-23T22:03:00.269Z,11.90
2018-06-23T22:05:28.904Z,11.90
2018-06-23T22:07:57.443Z,11.90
2018-06-23T22:12:54.199Z,11.90
2018-06-23T22:17:50.570Z,11.80
2018-06-23T22:20:19.161Z,11.80
2018-06-23T22:25:15.734Z,11.80
2018-06-23T22:27:44.438Z,11.80
2018-06-23T22:30:13.052Z,11.80
2018-06-23T22:32:41.154Z,11.80
2018-06-23T22:35:11.600Z,11.80
2018-06-23T22:37:40.866Z,11.80
2018-06-23T22:42:37.589Z,11.70
2018-06-23T22:45:06.758Z,11.70
2018-06-23T22:47:35.669Z,11.70
2018-06-23T22:50:04.229Z,11.70
2018-06-23T22:52:32.606Z,11.70
2018-06-23T22:55:01.026Z,11.70
2018-06-23T22:57:29.450Z,11.70
2018-06-23T22:59:58.154Z,11.70
2018-06-23T23:02:26.346Z,11.70
2018-06-23T23:04:54.757Z,11.60
2018-06-23T23:07:22.889Z,11.70
2018-06-23T23:12:33.594Z,11.60
2018-06-23T23:15:01.754Z,11.70
2018-06-23T23:17:30.793Z,12.30
2018-06-23T23:19:58.936Z,11.60
2018-06-23T23:22:27.915Z,11.60
2018-06-23T23:24:57.754Z,11.60
2018-06-23T23:27:25.870Z,11.60
2018-06-23T23:29:54.131Z,11.60
2018-06-23T23:37:20.142Z,11.60
2018-06-23T23:39:48.625Z,11.60
2018-06-23T23:42:17.865Z,11.60
2018-06-23T23:47:14.572Z,11.60
2018-06-23T23:49:43.977Z,11.60
2018-06-23T23:52:12.985Z,11.60
2018-06-23T23:54:41.909Z,11.60
2018-06-23T23:59:39.157Z,11.60
